sensor_id;sensor_type;location;lat;lon;timestamp;P1;durP1;ratioP1;P2;durP2;ratioP2
70787;SDS011;68385;47.752;19.100;2023-03-16T00:02:07;3.08;;;1.00;;
70787;SDS011;68385;47.752;19.100;2023-03-16T00:05:10;0.40;;;0.10;;
70787;SDS011;68385;47.752;19.100;2023-03-16T00:08:13;0.40;;;0.10;;
70787;SDS011;68385;47.752;19.100;2023-03-16T00:11:15;0.93;;;0.50;;
70787;SDS011;68385;47.752;19.100;2023-03-16T00:14:17;1.20;;;0.82;;
70787;SDS011;68385;47.752;19.100;2023-03-16T00:17:19;0.40;;;0.10;;
70787;SDS011;68385;47.752;19.100;2023-03-16T00:20:21;1.15;;;0.40;;
70787;SDS011;68385;47.752;19.100;2023-03-16T00:23:24;0.40;;;0.10;;
70787;SDS011;68385;47.752;19.100;2023-03-16T00:26:29;0.60;;;0.20;;
70787;SDS011;68385;47.752;19.100;2023-03-16T00:29:32;0.40;;;0.10;;
70787;SDS011;68385;47.752;19.100;2023-03-16T00:32:36;0.50;;;0.10;;
70787;SDS011;68385;47.752;19.100;2023-03-16T00:35:39;2.87;;;0.85;;
70787;SDS011;68385;47.752;19.100;2023-03-16T00:38:50;0.30;;;0.10;;
70787;SDS011;68385;47.752;19.100;2023-03-16T00:41:52;0.40;;;0.10;;
70787;SDS011;68385;47.752;19.100;2023-03-16T00:44:59;0.40;;;0.10;;
70787;SDS011;68385;47.752;19.100;2023-03-16T00:48:03;0.40;;;0.10;;
70787;SDS011;68385;47.752;19.100;2023-03-16T00:51:05;0.30;;;0.10;;
70787;SDS011;68385;47.752;19.100;2023-03-16T00:54:09;0.45;;;0.10;;
70787;SDS011;68385;47.752;19.100;2023-03-16T00:57:12;0.30;;;0.00;;
70787;SDS011;68385;47.752;19.100;2023-03-16T01:00:15;0.40;;;0.10;;
70787;SDS011;68385;47.752;19.100;2023-03-16T01:03:20;0.40;;;0.10;;
70787;SDS011;68385;47.752;19.100;2023-03-16T01:06:23;0.40;;;0.10;;
70787;SDS011;68385;47.752;19.100;2023-03-16T01:09:24;0.40;;;0.10;;
70787;SDS011;68385;47.752;19.100;2023-03-16T01:12:26;0.93;;;0.57;;
70787;SDS011;68385;47.752;19.100;2023-03-16T01:15:29;0.40;;;0.10;;
70787;SDS011;68385;47.752;19.100;2023-03-16T01:18:31;0.40;;;0.10;;
70787;SDS011;68385;47.752;19.100;2023-03-16T01:21:35;0.40;;;0.10;;
70787;SDS011;68385;47.752;19.100;2023-03-16T01:24:38;0.50;;;0.20;;
70787;SDS011;68385;47.752;19.100;2023-03-16T01:27:41;1.17;;;1.07;;
70787;SDS011;68385;47.752;19.100;2023-03-16T01:30:43;0.40;;;0.10;;
70787;SDS011;68385;47.752;19.100;2023-03-16T01:33:45;0.40;;;0.10;;
70787;SDS011;68385;47.752;19.100;2023-03-16T01:36:47;11.23;;;1.08;;
70787;SDS011;68385;47.752;19.100;2023-03-16T01:39:50;0.30;;;0.10;;
70787;SDS011;68385;47.752;19.100;2023-03-16T01:43:02;0.30;;;0.10;;
70787;SDS011;68385;47.752;19.100;2023-03-16T01:49:11;0.30;;;0.10;;
70787;SDS011;68385;47.752;19.100;2023-03-16T01:52:17;0.40;;;0.10;;
70787;SDS011;68385;47.752;19.100;2023-03-16T01:55:20;0.40;;;0.10;;
70787;SDS011;68385;47.752;19.100;2023-03-16T01:58:22;0.40;;;0.10;;
70787;SDS011;68385;47.752;19.100;2023-03-16T02:01:25;0.30;;;0.10;;
70787;SDS011;68385;47.752;19.100;2023-03-16T02:07:33;0.40;;;0.10;;
70787;SDS011;68385;47.752;19.100;2023-03-16T02:10:38;0.30;;;0.10;;
70787;SDS011;68385;47.752;19.100;2023-03-16T02:13:40;0.60;;;0.20;;
70787;SDS011;68385;47.752;19.100;2023-03-16T02:16:44;0.40;;;0.10;;
70787;SDS011;68385;47.752;19.100;2023-03-16T02:22:53;0.40;;;0.10;;
70787;SDS011;68385;47.752;19.100;2023-03-16T02:32:30;0.40;;;0.10;;
70787;SDS011;68385;47.752;19.100;2023-03-16T02:35:32;0.40;;;0.10;;
70787;SDS011;68385;47.752;19.100;2023-03-16T02:38:35;0.47;;;0.10;;
70787;SDS011;68385;47.752;19.100;2023-03-16T02:41:36;2.45;;;0.45;;
70787;SDS011;68385;47.752;19.100;2023-03-16T02:44:39;0.55;;;0.20;;
70787;SDS011;68385;47.752;19.100;2023-03-16T02:47:44;0.40;;;0.10;;
70787;SDS011;68385;47.752;19.100;2023-03-16T02:50:47;0.40;;;0.10;;
70787;SDS011;68385;47.752;19.100;2023-03-16T02:53:51;0.40;;;0.10;;
70787;SDS011;68385;47.752;19.100;2023-03-16T02:56:53;0.82;;;0.65;;
70787;SDS011;68385;47.752;19.100;2023-03-16T02:59:54;0.70;;;0.20;;
70787;SDS011;68385;47.752;19.100;2023-03-16T03:02:56;0.40;;;0.10;;
70787;SDS011;68385;47.752;19.100;2023-03-16T03:05:58;0.60;;;0.30;;
70787;SDS011;68385;47.752;19.100;2023-03-16T03:09:02;0.30;;;0.10;;
70787;SDS011;68385;47.752;19.100;2023-03-16T03:12:04;0.40;;;0.10;;
70787;SDS011;68385;47.752;19.100;2023-03-16T03:15:06;0.35;;;0.10;;
70787;SDS011;68385;47.752;19.100;2023-03-16T03:18:09;0.37;;;0.10;;
70787;SDS011;68385;47.752;19.100;2023-03-16T03:21:11;0.30;;;0.10;;
70787;SDS011;68385;47.752;19.100;2023-03-16T03:24:13;0.40;;;0.10;;
70787;SDS011;68385;47.752;19.100;2023-03-16T03:27:15;0.40;;;0.10;;
70787;SDS011;68385;47.752;19.100;2023-03-16T03:30:18;0.40;;;0.10;;
70787;SDS011;68385;47.752;19.100;2023-03-16T03:33:21;0.40;;;0.10;;
70787;SDS011;68385;47.752;19.100;2023-03-16T03:36:23;0.40;;;0.10;;
70787;SDS011;68385;47.752;19.100;2023-03-16T03:39:25;0.50;;;0.20;;
70787;SDS011;68385;47.752;19.100;2023-03-16T03:42:27;0.43;;;0.10;;
70787;SDS011;68385;47.752;19.100;2023-03-16T03:45:29;0.93;;;0.65;;
70787;SDS011;68385;47.752;19.100;2023-03-16T03:48:31;0.90;;;0.55;;
70787;SDS011;68385;47.752;19.100;2023-03-16T03:51:32;0.30;;;0.10;;
70787;SDS011;68385;47.752;19.100;2023-03-16T03:54:35;0.50;;;0.10;;
70787;SDS011;68385;47.752;19.100;2023-03-16T03:57:37;0.30;;;0.10;;
70787;SDS011;68385;47.752;19.100;2023-03-16T04:00:39;0.40;;;0.10;;
70787;SDS011;68385;47.752;19.100;2023-03-16T04:03:41;0.30;;;0.10;;
70787;SDS011;68385;47.752;19.100;2023-03-16T04:06:45;0.30;;;0.10;;
70787;SDS011;68385;47.752;19.100;2023-03-16T04:09:47;0.40;;;0.10;;
70787;SDS011;68385;47.752;19.100;2023-03-16T04:12:49;0.40;;;0.10;;
70787;SDS011;68385;47.752;19.100;2023-03-16T04:15:58;0.50;;;0.10;;
70787;SDS011;68385;47.752;19.100;2023-03-16T04:19:03;0.40;;;0.10;;
70787;SDS011;68385;47.752;19.100;2023-03-16T04:22:05;0.40;;;0.10;;
70787;SDS011;68385;47.752;19.100;2023-03-16T04:25:08;0.50;;;0.10;;
70787;SDS011;68385;47.752;19.100;2023-03-16T04:28:12;0.40;;;0.10;;
70787;SDS011;68385;47.752;19.100;2023-03-16T04:31:14;1.58;;;1.20;;
70787;SDS011;68385;47.752;19.100;2023-03-16T04:34:16;0.30;;;0.10;;
70787;SDS011;68385;47.752;19.100;2023-03-16T04:37:17;0.60;;;0.22;;
70787;SDS011;68385;47.752;19.100;2023-03-16T04:40:19;0.30;;;0.10;;
70787;SDS011;68385;47.752;19.100;2023-03-16T04:43:21;0.40;;;0.10;;
70787;SDS011;68385;47.752;19.100;2023-03-16T04:46:24;0.35;;;0.10;;
70787;SDS011;68385;47.752;19.100;2023-03-16T04:49:27;0.50;;;0.20;;
70787;SDS011;68385;47.752;19.100;2023-03-16T04:52:29;0.30;;;0.10;;
70787;SDS011;68385;47.752;19.100;2023-03-16T04:55:31;0.40;;;0.10;;
70787;SDS011;68385;47.752;19.100;2023-03-16T04:58:33;0.30;;;0.10;;
70787;SDS011;68385;47.752;19.100;2023-03-16T05:01:35;3.65;;;0.93;;
70787;SDS011;68385;47.752;19.100;2023-03-16T05:04:38;0.40;;;0.10;;
70787;SDS011;68385;47.752;19.100;2023-03-16T05:07:41;0.70;;;0.30;;
70787;SDS011;68385;47.752;19.100;2023-03-16T05:10:43;0.40;;;0.10;;
70787;SDS011;68385;47.752;19.100;2023-03-16T05:13:48;0.40;;;0.10;;
70787;SDS011;68385;47.752;19.100;2023-03-16T05:16:49;0.40;;;0.10;;
70787;SDS011;68385;47.752;19.100;2023-03-16T05:19:52;0.40;;;0.10;;
70787;SDS011;68385;47.752;19.100;2023-03-16T05:22:54;0.40;;;0.10;;
70787;SDS011;68385;47.752;19.100;2023-03-16T05:25:56;0.30;;;0.10;;
70787;SDS011;68385;47.752;19.100;2023-03-16T05:29:00;0.30;;;0.10;;
70787;SDS011;68385;47.752;19.100;2023-03-16T05:32:02;0.50;;;0.10;;
70787;SDS011;68385;47.752;19.100;2023-03-16T05:35:04;0.37;;;0.10;;
70787;SDS011;68385;47.752;19.100;2023-03-16T05:38:07;0.40;;;0.10;;
70787;SDS011;68385;47.752;19.100;2023-03-16T05:41:10;0.30;;;0.00;;
70787;SDS011;68385;47.752;19.100;2023-03-16T05:44:12;0.40;;;0.10;;
70787;SDS011;68385;47.752;19.100;2023-03-16T05:47:14;0.30;;;0.10;;
70787;SDS011;68385;47.752;19.100;2023-03-16T05:50:16;0.50;;;0.10;;
70787;SDS011;68385;47.752;19.100;2023-03-16T05:53:18;0.30;;;0.10;;
70787;SDS011;68385;47.752;19.100;2023-03-16T05:56:22;0.40;;;0.10;;
70787;SDS011;68385;47.752;19.100;2023-03-16T05:59:25;0.40;;;0.10;;
70787;SDS011;68385;47.752;19.100;2023-03-16T06:02:27;0.50;;;0.10;;
70787;SDS011;68385;47.752;19.100;2023-03-16T06:05:29;0.40;;;0.10;;
70787;SDS011;68385;47.752;19.100;2023-03-16T06:08:32;0.50;;;0.13;;
70787;SDS011;68385;47.752;19.100;2023-03-16T06:11:34;0.40;;;0.10;;
70787;SDS011;68385;47.752;19.100;2023-03-16T06:14:36;0.47;;;0.10;;
70787;SDS011;68385;47.752;19.100;2023-03-16T06:17:38;0.40;;;0.10;;
70787;SDS011;68385;47.752;19.100;2023-03-16T06:20:41;0.50;;;0.10;;
70787;SDS011;68385;47.752;19.100;2023-03-16T06:23:44;0.50;;;0.10;;
70787;SDS011;68385;47.752;19.100;2023-03-16T06:26:45;0.50;;;0.10;;
70787;SDS011;68385;47.752;19.100;2023-03-16T06:29:47;0.40;;;0.10;;
70787;SDS011;68385;47.752;19.100;2023-03-16T06:32:49;0.40;;;0.10;;
70787;SDS011;68385;47.752;19.100;2023-03-16T06:35:52;1.40;;;0.40;;
70787;SDS011;68385;47.752;19.100;2023-03-16T06:38:54;0.50;;;0.10;;
70787;SDS011;68385;47.752;19.100;2023-03-16T06:42:00;0.50;;;0.10;;
70787;SDS011;68385;47.752;19.100;2023-03-16T06:45:05;0.50;;;0.10;;
70787;SDS011;68385;47.752;19.100;2023-03-16T06:48:07;0.65;;;0.20;;
70787;SDS011;68385;47.752;19.100;2023-03-16T06:51:10;0.50;;;0.10;;
70787;SDS011;68385;47.752;19.100;2023-03-16T06:54:12;0.70;;;0.30;;
70787;SDS011;68385;47.752;19.100;2023-03-16T06:57:14;0.50;;;0.10;;
70787;SDS011;68385;47.752;19.100;2023-03-16T07:00:16;0.50;;;0.10;;
70787;SDS011;68385;47.752;19.100;2023-03-16T07:03:18;0.50;;;0.10;;
70787;SDS011;68385;47.752;19.100;2023-03-16T07:06:20;0.57;;;0.10;;
70787;SDS011;68385;47.752;19.100;2023-03-16T07:09:22;0.70;;;0.20;;
70787;SDS011;68385;47.752;19.100;2023-03-16T07:12:24;1.02;;;0.40;;
70787;SDS011;68385;47.752;19.100;2023-03-16T07:15:26;0.40;;;0.10;;
70787;SDS011;68385;47.752;19.100;2023-03-16T07:18:28;0.70;;;0.28;;
70787;SDS011;68385;47.752;19.100;2023-03-16T07:21:31;1.80;;;0.68;;
70787;SDS011;68385;47.752;19.100;2023-03-16T07:24:39;0.50;;;0.10;;
70787;SDS011;68385;47.752;19.100;2023-03-16T07:27:42;1.05;;;0.43;;
70787;SDS011;68385;47.752;19.100;2023-03-16T07:30:46;0.50;;;0.10;;
70787;SDS011;68385;47.752;19.100;2023-03-16T07:34:03;0.47;;;0.10;;
70787;SDS011;68385;47.752;19.100;2023-03-16T07:37:05;0.55;;;0.10;;
70787;SDS011;68385;47.752;19.100;2023-03-16T07:40:09;0.90;;;0.30;;
70787;SDS011;68385;47.752;19.100;2023-03-16T07:43:11;2.05;;;1.85;;
70787;SDS011;68385;47.752;19.100;2023-03-16T07:46:13;0.50;;;0.10;;
70787;SDS011;68385;47.752;19.100;2023-03-16T07:49:15;1.40;;;0.22;;
70787;SDS011;68385;47.752;19.100;2023-03-16T07:52:17;0.50;;;0.10;;
70787;SDS011;68385;47.752;19.100;2023-03-16T07:55:19;0.57;;;0.10;;
70787;SDS011;68385;47.752;19.100;2023-03-16T07:58:21;0.65;;;0.15;;
70787;SDS011;68385;47.752;19.100;2023-03-16T08:01:23;3.03;;;0.40;;
70787;SDS011;68385;47.752;19.100;2023-03-16T08:04:25;1.05;;;0.43;;
70787;SDS011;68385;47.752;19.100;2023-03-16T08:07:27;0.50;;;0.10;;
70787;SDS011;68385;47.752;19.100;2023-03-16T08:10:29;1.73;;;0.40;;
70787;SDS011;68385;47.752;19.100;2023-03-16T08:13:32;0.80;;;0.30;;
70787;SDS011;68385;47.752;19.100;2023-03-16T08:16:35;0.63;;;0.10;;
70787;SDS011;68385;47.752;19.100;2023-03-16T08:19:38;0.60;;;0.10;;
70787;SDS011;68385;47.752;19.100;2023-03-16T08:22:40;0.60;;;0.10;;
70787;SDS011;68385;47.752;19.100;2023-03-16T08:25:43;0.70;;;0.20;;
70787;SDS011;68385;47.752;19.100;2023-03-16T08:28:45;1.42;;;0.62;;
70787;SDS011;68385;47.752;19.100;2023-03-16T08:31:48;0.60;;;0.10;;
70787;SDS011;68385;47.752;19.100;2023-03-16T08:34:49;0.60;;;0.10;;
70787;SDS011;68385;47.752;19.100;2023-03-16T08:37:53;0.80;;;0.20;;
70787;SDS011;68385;47.752;19.100;2023-03-16T08:40:55;0.75;;;0.20;;
70787;SDS011;68385;47.752;19.100;2023-03-16T08:43:57;0.70;;;0.10;;
70787;SDS011;68385;47.752;19.100;2023-03-16T08:47:00;4.20;;;0.87;;
70787;SDS011;68385;47.752;19.100;2023-03-16T08:50:03;1.45;;;0.77;;
70787;SDS011;68385;47.752;19.100;2023-03-16T08:53:06;0.60;;;0.10;;
70787;SDS011;68385;47.752;19.100;2023-03-16T08:56:09;0.50;;;0.10;;
70787;SDS011;68385;47.752;19.100;2023-03-16T08:59:12;1.02;;;0.50;;
70787;SDS011;68385;47.752;19.100;2023-03-16T09:02:29;0.60;;;0.10;;
70787;SDS011;68385;47.752;19.100;2023-03-16T09:05:31;0.60;;;0.10;;
70787;SDS011;68385;47.752;19.100;2023-03-16T09:08:34;0.70;;;0.10;;
70787;SDS011;68385;47.752;19.100;2023-03-16T09:11:37;0.90;;;0.47;;
70787;SDS011;68385;47.752;19.100;2023-03-16T09:14:39;0.60;;;0.10;;
70787;SDS011;68385;47.752;19.100;2023-03-16T09:17:41;0.93;;;0.37;;
70787;SDS011;68385;47.752;19.100;2023-03-16T09:20:44;0.60;;;0.10;;
70787;SDS011;68385;47.752;19.100;2023-03-16T09:23:48;0.60;;;0.10;;
70787;SDS011;68385;47.752;19.100;2023-03-16T09:26:50;0.50;;;0.10;;
70787;SDS011;68385;47.752;19.100;2023-03-16T09:29:52;0.60;;;0.20;;
70787;SDS011;68385;47.752;19.100;2023-03-16T09:32:56;0.97;;;0.37;;
70787;SDS011;68385;47.752;19.100;2023-03-16T09:35:59;0.50;;;0.10;;
70787;SDS011;68385;47.752;19.100;2023-03-16T09:39:01;0.55;;;0.10;;
70787;SDS011;68385;47.752;19.100;2023-03-16T09:42:07;0.70;;;0.20;;
70787;SDS011;68385;47.752;19.100;2023-03-16T09:45:17;0.65;;;0.13;;
70787;SDS011;68385;47.752;19.100;2023-03-16T09:48:28;0.70;;;0.20;;
70787;SDS011;68385;47.752;19.100;2023-03-16T09:51:41;0.50;;;0.10;;
70787;SDS011;68385;47.752;19.100;2023-03-16T09:57:58;0.85;;;0.28;;
70787;SDS011;68385;47.752;19.100;2023-03-16T10:14:00;0.85;;;0.17;;
70787;SDS011;68385;47.752;19.100;2023-03-16T10:17:09;0.70;;;0.30;;
70787;SDS011;68385;47.752;19.100;2023-03-16T10:20:20;0.97;;;0.30;;
70787;SDS011;68385;47.752;19.100;2023-03-16T10:23:24;0.82;;;0.25;;
70787;SDS011;68385;47.752;19.100;2023-03-16T10:26:34;0.60;;;0.10;;
70787;SDS011;68385;47.752;19.100;2023-03-16T10:29:39;0.80;;;0.20;;
70787;SDS011;68385;47.752;19.100;2023-03-16T10:32:41;0.90;;;0.32;;
70787;SDS011;68385;47.752;19.100;2023-03-16T10:35:45;0.60;;;0.10;;
70787;SDS011;68385;47.752;19.100;2023-03-16T10:38:50;0.60;;;0.10;;
70787;SDS011;68385;47.752;19.100;2023-03-16T10:41:56;0.70;;;0.20;;
70787;SDS011;68385;47.752;19.100;2023-03-16T10:44:59;0.70;;;0.20;;
70787;SDS011;68385;47.752;19.100;2023-03-16T10:48:04;0.70;;;0.20;;
70787;SDS011;68385;47.752;19.100;2023-03-16T10:51:10;0.60;;;0.10;;
70787;SDS011;68385;47.752;19.100;2023-03-16T10:54:14;0.90;;;0.30;;
70787;SDS011;68385;47.752;19.100;2023-03-16T11:00:37;0.50;;;0.10;;
70787;SDS011;68385;47.752;19.100;2023-03-16T11:03:46;0.50;;;0.10;;
70787;SDS011;68385;47.752;19.100;2023-03-16T11:06:53;0.50;;;0.10;;
70787;SDS011;68385;47.752;19.100;2023-03-16T11:09:56;0.60;;;0.10;;
70787;SDS011;68385;47.752;19.100;2023-03-16T11:13:00;0.55;;;0.10;;
70787;SDS011;68385;47.752;19.100;2023-03-16T11:19:44;0.60;;;0.10;;
70787;SDS011;68385;47.752;19.100;2023-03-16T11:22:52;0.90;;;0.30;;
70787;SDS011;68385;47.752;19.100;2023-03-16T11:25:53;0.90;;;0.20;;
70787;SDS011;68385;47.752;19.100;2023-03-16T11:32:36;0.60;;;0.10;;
70787;SDS011;68385;47.752;19.100;2023-03-16T11:39:29;0.60;;;0.10;;
70787;SDS011;68385;47.752;19.100;2023-03-16T11:42:36;1.35;;;0.62;;
70787;SDS011;68385;47.752;19.100;2023-03-16T12:06:21;0.50;;;0.10;;
70787;SDS011;68385;47.752;19.100;2023-03-16T12:16:00;0.55;;;0.15;;
70787;SDS011;68385;47.752;19.100;2023-03-16T12:19:08;0.60;;;0.10;;
70787;SDS011;68385;47.752;19.100;2023-03-16T12:22:24;1.17;;;0.62;;
70787;SDS011;68385;47.752;19.100;2023-03-16T12:25:31;1.75;;;0.37;;
70787;SDS011;68385;47.752;19.100;2023-03-16T12:28:35;0.60;;;0.10;;
70787;SDS011;68385;47.752;19.100;2023-03-16T12:35:12;0.60;;;0.10;;
70787;SDS011;68385;47.752;19.100;2023-03-16T12:41:40;0.50;;;0.10;;
70787;SDS011;68385;47.752;19.100;2023-03-16T12:44:47;0.60;;;0.10;;
70787;SDS011;68385;47.752;19.100;2023-03-16T12:51:15;0.70;;;0.20;;
70787;SDS011;68385;47.752;19.100;2023-03-16T12:54:19;0.90;;;0.40;;
70787;SDS011;68385;47.752;19.100;2023-03-16T12:57:25;0.60;;;0.10;;
70787;SDS011;68385;47.752;19.100;2023-03-16T13:00:34;0.57;;;0.10;;
70787;SDS011;68385;47.752;19.100;2023-03-16T13:03:38;0.50;;;0.10;;
70787;SDS011;68385;47.752;19.100;2023-03-16T13:06:44;0.60;;;0.10;;
70787;SDS011;68385;47.752;19.100;2023-03-16T13:09:51;0.60;;;0.10;;
70787;SDS011;68385;47.752;19.100;2023-03-16T13:13:06;0.60;;;0.10;;
70787;SDS011;68385;47.752;19.100;2023-03-16T13:16:21;0.50;;;0.10;;
70787;SDS011;68385;47.752;19.100;2023-03-16T13:19:26;0.60;;;0.10;;
70787;SDS011;68385;47.752;19.100;2023-03-16T13:22:31;0.60;;;0.15;;
70787;SDS011;68385;47.752;19.100;2023-03-16T13:25:44;1.08;;;0.20;;
70787;SDS011;68385;47.752;19.100;2023-03-16T13:28:59;0.60;;;0.10;;
70787;SDS011;68385;47.752;19.100;2023-03-16T13:32:09;0.70;;;0.20;;
70787;SDS011;68385;47.752;19.100;2023-03-16T13:35:18;0.50;;;0.10;;
70787;SDS011;68385;47.752;19.100;2023-03-16T13:38:21;1.10;;;0.32;;
70787;SDS011;68385;47.752;19.100;2023-03-16T13:41:28;0.95;;;0.30;;
70787;SDS011;68385;47.752;19.100;2023-03-16T13:44:31;0.60;;;0.10;;
70787;SDS011;68385;47.752;19.100;2023-03-16T13:47:33;0.53;;;0.10;;
70787;SDS011;68385;47.752;19.100;2023-03-16T13:50:35;0.70;;;0.20;;
70787;SDS011;68385;47.752;19.100;2023-03-16T13:53:41;0.70;;;0.20;;
70787;SDS011;68385;47.752;19.100;2023-03-16T13:56:43;0.70;;;0.20;;
70787;SDS011;68385;47.752;19.100;2023-03-16T13:59:45;0.60;;;0.10;;
70787;SDS011;68385;47.752;19.100;2023-03-16T14:02:54;1.00;;;0.20;;
70787;SDS011;68385;47.752;19.100;2023-03-16T14:05:57;0.80;;;0.30;;
70787;SDS011;68385;47.752;19.100;2023-03-16T14:09:01;0.60;;;0.10;;
70787;SDS011;68385;47.752;19.100;2023-03-16T14:12:05;1.02;;;0.40;;
70787;SDS011;68385;47.752;19.100;2023-03-16T14:15:07;0.60;;;0.10;;
70787;SDS011;68385;47.752;19.100;2023-03-16T14:18:14;0.70;;;0.20;;
70787;SDS011;68385;47.752;19.100;2023-03-16T14:21:23;0.50;;;0.10;;
70787;SDS011;68385;47.752;19.100;2023-03-16T14:24:28;0.60;;;0.10;;
70787;SDS011;68385;47.752;19.100;2023-03-16T14:31:00;0.50;;;0.10;;
70787;SDS011;68385;47.752;19.100;2023-03-16T14:34:05;0.53;;;0.10;;
70787;SDS011;68385;47.752;19.100;2023-03-16T14:37:19;0.60;;;0.10;;
70787;SDS011;68385;47.752;19.100;2023-03-16T14:40:28;0.93;;;0.30;;
70787;SDS011;68385;47.752;19.100;2023-03-16T14:43:35;0.60;;;0.10;;
70787;SDS011;68385;47.752;19.100;2023-03-16T14:46:40;0.93;;;0.32;;
70787;SDS011;68385;47.752;19.100;2023-03-16T14:49:42;0.50;;;0.10;;
70787;SDS011;68385;47.752;19.100;2023-03-16T14:52:45;0.57;;;0.10;;
70787;SDS011;68385;47.752;19.100;2023-03-16T14:55:47;0.60;;;0.20;;
70787;SDS011;68385;47.752;19.100;2023-03-16T14:58:49;0.82;;;0.13;;
70787;SDS011;68385;47.752;19.100;2023-03-16T15:01:54;0.60;;;0.17;;
70787;SDS011;68385;47.752;19.100;2023-03-16T15:04:56;0.60;;;0.10;;
70787;SDS011;68385;47.752;19.100;2023-03-16T15:07:59;0.60;;;0.10;;
70787;SDS011;68385;47.752;19.100;2023-03-16T15:11:02;0.60;;;0.10;;
70787;SDS011;68385;47.752;19.100;2023-03-16T15:14:09;0.90;;;0.40;;
70787;SDS011;68385;47.752;19.100;2023-03-16T15:17:15;0.55;;;0.10;;
70787;SDS011;68385;47.752;19.100;2023-03-16T15:20:18;0.50;;;0.10;;
70787;SDS011;68385;47.752;19.100;2023-03-16T15:23:24;0.55;;;0.10;;
70787;SDS011;68385;47.752;19.100;2023-03-16T15:26:27;0.70;;;0.20;;
70787;SDS011;68385;47.752;19.100;2023-03-16T15:29:30;0.50;;;0.10;;
70787;SDS011;68385;47.752;19.100;2023-03-16T15:32:32;0.60;;;0.10;;
70787;SDS011;68385;47.752;19.100;2023-03-16T15:35:34;0.60;;;0.10;;
70787;SDS011;68385;47.752;19.100;2023-03-16T15:38:37;0.50;;;0.10;;
70787;SDS011;68385;47.752;19.100;2023-03-16T15:41:41;0.60;;;0.10;;
70787;SDS011;68385;47.752;19.100;2023-03-16T15:44:48;0.50;;;0.10;;
70787;SDS011;68385;47.752;19.100;2023-03-16T15:47:50;0.60;;;0.10;;
70787;SDS011;68385;47.752;19.100;2023-03-16T15:50:58;0.60;;;0.10;;
70787;SDS011;68385;47.752;19.100;2023-03-16T15:54:14;0.50;;;0.10;;
70787;SDS011;68385;47.752;19.100;2023-03-16T15:57:16;0.50;;;0.10;;
70787;SDS011;68385;47.752;19.100;2023-03-16T16:00:39;0.88;;;0.35;;
70787;SDS011;68385;47.752;19.100;2023-03-16T16:03:41;0.57;;;0.10;;
70787;SDS011;68385;47.752;19.100;2023-03-16T16:06:43;0.60;;;0.10;;
70787;SDS011;68385;47.752;19.100;2023-03-16T16:09:55;0.50;;;0.10;;
70787;SDS011;68385;47.752;19.100;2023-03-16T16:12:57;8.27;;;0.85;;
70787;SDS011;68385;47.752;19.100;2023-03-16T16:15:59;0.50;;;0.10;;
70787;SDS011;68385;47.752;19.100;2023-03-16T16:19:02;0.60;;;0.10;;
70787;SDS011;68385;47.752;19.100;2023-03-16T16:22:04;1.03;;;0.30;;
70787;SDS011;68385;47.752;19.100;2023-03-16T16:25:06;0.57;;;0.10;;
70787;SDS011;68385;47.752;19.100;2023-03-16T16:28:16;0.60;;;0.10;;
70787;SDS011;68385;47.752;19.100;2023-03-16T16:31:20;0.50;;;0.10;;
70787;SDS011;68385;47.752;19.100;2023-03-16T16:34:23;0.60;;;0.10;;
70787;SDS011;68385;47.752;19.100;2023-03-16T16:37:26;0.40;;;0.10;;
70787;SDS011;68385;47.752;19.100;2023-03-16T16:40:30;0.50;;;0.10;;
70787;SDS011;68385;47.752;19.100;2023-03-16T16:43:39;0.88;;;0.43;;
70787;SDS011;68385;47.752;19.100;2023-03-16T16:46:43;0.50;;;0.10;;
70787;SDS011;68385;47.752;19.100;2023-03-16T16:49:45;0.50;;;0.10;;
70787;SDS011;68385;47.752;19.100;2023-03-16T16:52:48;0.50;;;0.10;;
70787;SDS011;68385;47.752;19.100;2023-03-16T16:55:51;0.50;;;0.10;;
70787;SDS011;68385;47.752;19.100;2023-03-16T16:58:54;0.60;;;0.20;;
70787;SDS011;68385;47.752;19.100;2023-03-16T17:02:01;0.57;;;0.10;;
70787;SDS011;68385;47.752;19.100;2023-03-16T17:05:27;0.70;;;0.30;;
70787;SDS011;68385;47.752;19.100;2023-03-16T17:08:29;0.50;;;0.10;;
70787;SDS011;68385;47.752;19.100;2023-03-16T17:11:32;0.80;;;0.40;;
70787;SDS011;68385;47.752;19.100;2023-03-16T17:14:34;0.50;;;0.10;;
70787;SDS011;68385;47.752;19.100;2023-03-16T17:17:36;0.93;;;0.52;;
70787;SDS011;68385;47.752;19.100;2023-03-16T17:20:39;1.33;;;0.90;;
70787;SDS011;68385;47.752;19.100;2023-03-16T17:23:42;0.60;;;0.20;;
70787;SDS011;68385;47.752;19.100;2023-03-16T17:26:46;1.75;;;1.05;;
70787;SDS011;68385;47.752;19.100;2023-03-16T17:29:49;3.95;;;3.55;;
70787;SDS011;68385;47.752;19.100;2023-03-16T17:32:53;12.25;;;1.75;;
70787;SDS011;68385;47.752;19.100;2023-03-16T17:35:57;8.07;;;3.72;;
70787;SDS011;68385;47.752;19.100;2023-03-16T17:39:00;4.43;;;1.43;;
70787;SDS011;68385;47.752;19.100;2023-03-16T17:42:04;0.52;;;0.10;;
70787;SDS011;68385;47.752;19.100;2023-03-16T17:45:13;12.20;;;3.22;;
70787;SDS011;68385;47.752;19.100;2023-03-16T17:48:20;3.00;;;1.67;;
70787;SDS011;68385;47.752;19.100;2023-03-16T17:51:24;5.35;;;2.00;;
70787;SDS011;68385;47.752;19.100;2023-03-16T17:54:27;2.27;;;2.07;;
70787;SDS011;68385;47.752;19.100;2023-03-16T17:57:30;2.75;;;1.35;;
70787;SDS011;68385;47.752;19.100;2023-03-16T18:00:34;10.15;;;2.80;;
70787;SDS011;68385;47.752;19.100;2023-03-16T18:03:37;3.08;;;1.90;;
70787;SDS011;68385;47.752;19.100;2023-03-16T18:06:39;5.18;;;2.25;;
70787;SDS011;68385;47.752;19.100;2023-03-16T18:09:47;4.00;;;1.70;;
70787;SDS011;68385;47.752;19.100;2023-03-16T18:12:54;3.50;;;2.30;;
70787;SDS011;68385;47.752;19.100;2023-03-16T18:15:57;3.05;;;2.12;;
70787;SDS011;68385;47.752;19.100;2023-03-16T18:19:04;7.03;;;2.42;;
70787;SDS011;68385;47.752;19.100;2023-03-16T18:22:15;4.45;;;1.67;;
70787;SDS011;68385;47.752;19.100;2023-03-16T18:25:33;5.10;;;2.10;;
70787;SDS011;68385;47.752;19.100;2023-03-16T18:28:39;4.03;;;2.65;;
70787;SDS011;68385;47.752;19.100;2023-03-16T18:31:43;4.62;;;1.40;;
70787;SDS011;68385;47.752;19.100;2023-03-16T18:34:46;1.65;;;1.25;;
70787;SDS011;68385;47.752;19.100;2023-03-16T18:37:49;2.25;;;2.05;;
70787;SDS011;68385;47.752;19.100;2023-03-16T18:40:51;1.07;;;0.53;;
70787;SDS011;68385;47.752;19.100;2023-03-16T18:43:54;3.70;;;1.37;;
70787;SDS011;68385;47.752;19.100;2023-03-16T18:47:00;18.75;;;2.65;;
70787;SDS011;68385;47.752;19.100;2023-03-16T18:50:04;15.50;;;1.70;;
70787;SDS011;68385;47.752;19.100;2023-03-16T18:53:07;2.90;;;1.52;;
70787;SDS011;68385;47.752;19.100;2023-03-16T18:56:44;2.83;;;2.23;;
70787;SDS011;68385;47.752;19.100;2023-03-16T18:59:39;1.25;;;0.37;;
70787;SDS011;68385;47.752;19.100;2023-03-16T19:02:41;0.93;;;0.43;;
70787;SDS011;68385;47.752;19.100;2023-03-16T19:05:44;2.10;;;0.82;;
70787;SDS011;68385;47.752;19.100;2023-03-16T19:08:48;1.33;;;0.70;;
70787;SDS011;68385;47.752;19.100;2023-03-16T19:11:59;1.10;;;0.30;;
70787;SDS011;68385;47.752;19.100;2023-03-16T19:18:16;6.32;;;3.37;;
70787;SDS011;68385;47.752;19.100;2023-03-16T19:21:19;2.83;;;2.03;;
70787;SDS011;68385;47.752;19.100;2023-03-16T19:24:33;6.57;;;3.60;;
70787;SDS011;68385;47.752;19.100;2023-03-16T19:27:37;1.23;;;0.70;;
70787;SDS011;68385;47.752;19.100;2023-03-16T19:30:39;3.20;;;1.52;;
70787;SDS011;68385;47.752;19.100;2023-03-16T19:33:42;1.85;;;0.77;;
70787;SDS011;68385;47.752;19.100;2023-03-16T19:36:44;3.08;;;1.08;;
70787;SDS011;68385;47.752;19.100;2023-03-16T19:39:48;2.25;;;1.85;;
70787;SDS011;68385;47.752;19.100;2023-03-16T19:42:50;1.60;;;0.73;;